Time;durP1;ratioP1;P1;durP2;ratioP2;P2;SDS_P1;SDS_P2;PMS_P1;PMS_P2;Temp;Humidity;BMP_temperature;BMP_pressure;BME280_temperature;BME280_humidity;BME280_pressure;Samples;Min_cycle;Max_cycle;Signal;HPM_P1;HPM_P2
2022/01/25 00:27:12;;;;;;;0.93;0.80;;;19.60;48.30;;;;;;6176161;28;20038;-68
2022/01/25 00:30:27;;;;;;;0.68;0.55;;;19.50;48.20;;;;;;6194005;28;20026;-69
2022/01/25 00:33:30;;;;;;;0.55;0.55;;;19.60;48.20;;;;;;6193447;28;20400;-69
2022/01/25 00:36:31;;;;;;;0.47;0.47;;;19.50;48.10;;;;;;6193315;28;20034;-69
2022/01/25 00:39:32;;;;;;;0.82;0.57;;;19.50;48.10;;;;;;6193524;28;20030;-69
2022/01/25 00:42:32;;;;;;;0.50;0.50;;;19.60;48.20;;;;;;6193691;28;20060;-69
2022/01/25 00:45:33;;;;;;;0.63;0.60;;;19.50;48.10;;;;;;6193760;28;20034;-69
2022/01/25 00:54:46;;;;;;;0.45;0.40;;;19.50;48.20;;;;;;6193309;28;20042;-67
2022/01/25 00:57:46;;;;;;;0.40;0.40;;;19.50;48.20;;;;;;6193788;28;20034;-69
2022/01/25 01:00:47;;;;;;;0.70;0.70;;;19.50;48.20;;;;;;6193552;28;20092;-69
2022/01/25 01:03:48;;;;;;;0.50;0.50;;;19.50;48.20;;;;;;6193708;28;20058;-69
2022/01/25 01:06:50;;;;;;;0.60;0.60;;;19.50;48.10;;;;;;6193401;28;20026;-69
2022/01/25 01:09:52;;;;;;;1.10;0.63;;;19.50;48.20;;;;;;6194055;28;20050;-69
2022/01/25 01:13:40;;;;;;;0.90;0.60;;;19.50;48.10;;;;;;6193545;28;20039;-69
2022/01/25 01:39:56;;;;;;;;;;;19.50;48.10;;;;;;6198624;28;20030;-68
2022/01/25 01:49:12;;;;;;;0.77;0.60;;;19.50;48.20;;;;;;6197608;28;20389;-69
2022/01/25 01:52:13;;;;;;;0.75;0.68;;;19.50;48.20;;;;;;6193609;28;20512;-68
2022/01/25 01:55:13;;;;;;;0.77;0.70;;;19.50;48.20;;;;;;6173057;28;20470;-68
2022/01/25 01:58:15;;;;;;;0.65;0.60;;;19.50;48.20;;;;;;6172892;28;20031;-69
2022/01/25 02:01:17;;;;;;;1.30;0.45;;;19.50;48.20;;;;;;6173180;28;20026;-69
2022/01/25 02:04:19;;;;;;;0.70;0.50;;;19.50;48.20;;;;;;6173574;28;20035;-69
2022/01/25 02:07:19;;;;;;;0.45;0.40;;;19.50;48.20;;;;;;6172645;28;20127;-67
2022/01/25 02:10:20;;;;;;;0.80;0.60;;;19.50;48.20;;;;;;6188055;28;20062;-69
2022/01/25 02:13:20;;;;;;;0.77;0.57;;;19.50;48.20;;;;;;6196966;28;20038;-69
2022/01/25 02:16:44;;;;;;;0.93;0.60;;;19.50;48.20;;;;;;6196510;28;20072;-69
2022/01/25 02:23:33;;;;;;;0.77;0.70;;;19.50;48.20;;;;;;6196609;28;20026;-69
2022/01/25 02:26:34;;;;;;;0.52;0.52;;;19.50;48.20;;;;;;6191495;28;20042;-69
2022/01/25 02:29:35;;;;;;;0.60;0.60;;;19.50;48.20;;;;;;6195997;28;20033;-69
2022/01/25 02:32:35;;;;;;;0.93;0.50;;;19.50;48.20;;;;;;6195916;28;20035;-68
2022/01/25 02:35:36;;;;;;;0.70;0.60;;;19.50;48.20;;;;;;6195603;28;20025;-70
2022/01/25 02:38:38;;;;;;;0.45;0.45;;;19.50;48.20;;;;;;6196944;28;20113;-68
2022/01/25 02:41:38;;;;;;;0.70;0.60;;;19.50;48.20;;;;;;6196015;28;20022;-68
2022/01/25 02:44:41;;;;;;;0.65;0.60;;;19.50;48.20;;;;;;6196333;28;20037;-67
2022/01/25 02:51:02;;;;;;;0.70;0.60;;;19.50;48.20;;;;;;6195763;28;20718;-69
2022/01/25 02:54:05;;;;;;;0.73;0.60;;;19.50;48.30;;;;;;6177390;28;20074;-69
2022/01/25 02:57:05;;;;;;;0.70;0.68;;;19.50;48.30;;;;;;6171966;28;20239;-69
2022/01/25 03:00:08;;;;;;;0.70;0.65;;;19.50;48.30;;;;;;6171433;28;20027;-69
2022/01/25 03:03:08;;;;;;;1.00;0.77;;;19.50;48.20;;;;;;6171557;28;20062;-68
2022/01/25 03:06:13;;;;;;;0.68;0.68;;;19.50;48.30;;;;;;6171591;28;20026;-68
2022/01/25 03:09:14;;;;;;;0.63;0.60;;;19.50;48.20;;;;;;6171783;28;20505;-69
2022/01/25 03:12:18;;;;;;;0.60;0.60;;;19.50;48.20;;;;;;6171147;28;20046;-69
2022/01/25 03:21:38;;;;;;;0.88;0.70;;;19.50;48.30;;;;;;6171629;28;20545;-68
2022/01/25 03:24:38;;;;;;;0.60;0.50;;;19.40;48.20;;;;;;6171378;28;20031;-69
2022/01/25 03:27:39;;;;;;;1.17;0.70;;;19.50;48.30;;;;;;6183307;28;20037;-69
2022/01/25 03:30:40;;;;;;;0.90;0.80;;;19.50;48.30;;;;;;6194904;28;20377;-69
2022/01/25 03:33:41;;;;;;;0.70;0.60;;;19.40;48.20;;;;;;6194673;28;20389;-69
2022/01/25 03:36:42;;;;;;;0.80;0.80;;;19.50;48.20;;;;;;6194889;28;20041;-69
2022/01/25 03:39:43;;;;;;;0.80;0.70;;;19.50;48.30;;;;;;6194692;28;20026;-69
2022/01/25 03:42:45;;;;;;;0.75;0.70;;;19.40;48.20;;;;;;6194720;28;20031;-69
2022/01/25 03:46:01;;;;;;;0.65;0.65;;;19.40;48.20;;;;;;6194882;28;20117;-69
2022/01/25 03:52:31;;;;;;;0.50;0.50;;;19.40;48.20;;;;;;6189429;28;20039;-69
2022/01/25 03:55:32;;;;;;;0.93;0.70;;;19.40;48.20;;;;;;6170609;28;20035;-69
2022/01/25 03:58:32;;;;;;;0.82;0.77;;;19.40;48.20;;;;;;6170043;28;20038;-69
2022/01/25 04:01:35;;;;;;;0.85;0.70;;;19.40;48.20;;;;;;6170762;28;20019;-69
2022/01/25 04:04:35;;;;;;;0.77;0.77;;;19.40;48.20;;;;;;6168600;28;20121;-69
2022/01/25 04:07:48;;;;;;;1.10;0.80;;;19.40;48.20;;;;;;6170359;28;20089;-69
2022/01/25 04:10:49;;;;;;;1.30;0.80;;;19.40;48.20;;;;;;6169863;28;20647;-69
2022/01/25 04:13:52;;;;;;;0.73;0.70;;;19.40;48.20;;;;;;6169575;28;20039;-69
2022/01/25 04:16:59;;;;;;;0.60;0.60;;;19.40;48.20;;;;;;6169702;28;20050;-69
2022/01/25 04:26:35;;;;;;;0.90;0.70;;;19.40;48.20;;;;;;6173987;28;20703;-69
2022/01/25 04:29:36;;;;;;;1.15;0.93;;;19.40;48.20;;;;;;6193524;28;20076;-69
2022/01/25 04:32:47;;;;;;;0.70;0.70;;;19.40;48.20;;;;;;6193300;28;20038;-69
2022/01/25 04:36:10;;;;;;;1.05;0.70;;;19.40;48.30;;;;;;6193714;28;20100;-69
2022/01/25 04:49:18;;;;;;;0.70;0.70;;;19.40;48.30;;;;;;6193094;28;20477;-69
2022/01/25 04:52:21;;;;;;;1.10;0.80;;;19.40;48.20;;;;;;6188795;28;20510;-69
2022/01/25 04:55:30;;;;;;;0.90;0.80;;;19.40;48.20;;;;;;6169794;28;20083;-69
2022/01/25 04:58:39;;;;;;;1.63;0.80;;;19.40;48.30;;;;;;6190738;28;20034;-69
2022/01/25 05:01:41;;;;;;;0.75;0.70;;;19.40;48.30;;;;;;6198759;28;20026;-68
2022/01/25 05:04:51;;;;;;;0.70;0.70;;;19.40;48.30;;;;;;6197846;28;20076;-69
2022/01/25 05:08:05;;;;;;;1.20;0.80;;;19.40;48.30;;;;;;6198306;28;20022;-69
2022/01/25 05:11:10;;;;;;;0.93;0.82;;;19.40;48.30;;;;;;6198149;28;20579;-68
2022/01/25 05:14:19;;;;;;;0.88;0.82;;;19.40;48.30;;;;;;6198386;28;20042;-69
2022/01/25 05:17:29;;;;;;;0.63;0.52;;;19.40;48.20;;;;;;6198044;28;20030;-69
2022/01/25 05:23:48;;;;;;;0.93;0.75;;;19.40;48.20;;;;;;6197957;28;20077;-68
2022/01/25 05:26:49;;;;;;;1.00;0.90;;;19.40;48.20;;;;;;6200196;28;20092;-69
2022/01/25 05:29:50;;;;;;;1.27;0.80;;;19.40;48.20;;;;;;6197423;28;20038;-68
2022/01/25 05:32:50;;;;;;;0.75;0.70;;;19.40;48.20;;;;;;6197739;28;20440;-68
2022/01/25 05:35:51;;;;;;;0.47;0.47;;;19.40;48.10;;;;;;6197615;28;20385;-68
2022/01/25 05:38:51;;;;;;;0.90;0.73;;;19.40;48.00;;;;;;6197564;28;20034;-69
2022/01/25 05:41:57;;;;;;;0.88;0.70;;;19.40;48.00;;;;;;6197870;28;20023;-69
2022/01/25 05:48:17;;;;;;;1.13;0.80;;;19.40;48.10;;;;;;6197046;28;20065;-69
2022/01/25 05:51:18;;;;;;;0.85;0.80;;;19.40;48.10;;;;;;6197269;28;20072;-69
2022/01/25 05:54:18;;;;;;;0.63;0.55;;;19.40;48.10;;;;;;6177306;28;20038;-69
2022/01/25 05:57:19;;;;;;;0.80;0.63;;;19.40;48.10;;;;;;6172567;28;20031;-69
2022/01/25 06:00:19;;;;;;;1.08;0.95;;;19.40;48.10;;;;;;6173157;28;20129;-69
2022/01/25 06:03:20;;;;;;;0.95;0.80;;;19.40;48.00;;;;;;6172997;28;20496;-69
2022/01/25 06:06:21;;;;;;;1.00;0.73;;;19.40;48.00;;;;;;6172836;28;20078;-69
2022/01/25 06:09:24;;;;;;;1.00;0.70;;;19.40;48.00;;;;;;6186951;28;20031;-69
2022/01/25 06:12:25;;;;;;;1.23;0.88;;;19.40;48.10;;;;;;6172128;28;20460;-69
2022/01/25 06:15:26;;;;;;;0.98;0.77;;;19.40;48.00;;;;;;6169426;28;20044;-69
2022/01/25 06:18:26;;;;;;;3.33;1.00;;;19.40;48.00;;;;;;6189714;28;20057;-69
2022/01/25 06:21:28;;;;;;;0.65;0.60;;;19.40;48.20;;;;;;6195575;28;20038;-69
2022/01/25 06:24:28;;;;;;;0.90;0.77;;;19.40;48.10;;;;;;6195496;28;20026;-69
2022/01/25 06:27:29;;;;;;;1.27;0.75;;;19.40;48.20;;;;;;6195074;28;20027;-69
2022/01/25 06:30:30;;;;;;;0.70;0.50;;;19.50;48.30;;;;;;6195776;28;20034;-69
2022/01/25 06:33:31;;;;;;;0.80;0.80;;;19.50;48.30;;;;;;6210275;28;20034;-69
2022/01/25 06:36:31;;;;;;;1.00;0.80;;;19.50;48.30;;;;;;6195297;28;20061;-69
2022/01/25 06:39:32;;;;;;;0.82;0.63;;;19.50;48.30;;;;;;6195616;28;20096;-69
2022/01/25 06:42:32;;;;;;;0.95;0.82;;;19.50;48.30;;;;;;6195958;28;20071;-68
2022/01/25 06:45:38;;;;;;;1.83;0.70;;;19.50;48.40;;;;;;6194947;28;20478;-69
2022/01/25 06:48:39;;;;;;;1.05;0.80;;;19.50;48.40;;;;;;6199798;28;20457;-69
2022/01/25 06:51:40;;;;;;;0.70;0.68;;;19.50;48.40;;;;;;6197199;28;20256;-69
2022/01/25 06:54:41;;;;;;;0.80;0.70;;;19.50;48.40;;;;;;6193825;28;20050;-69
2022/01/25 06:57:41;;;;;;;0.75;0.70;;;19.50;48.40;;;;;;6192461;28;20076;-69
2022/01/25 07:00:42;;;;;;;0.70;0.57;;;19.50;48.40;;;;;;6192951;28;20035;-69
2022/01/25 07:03:44;;;;;;;0.82;0.80;;;19.50;48.40;;;;;;6180263;28;20027;-69
2022/01/25 07:06:44;;;;;;;1.17;0.80;;;19.50;48.50;;;;;;6196261;28;20174;-69
2022/01/25 07:09:45;;;;;;;0.73;0.63;;;19.50;48.40;;;;;;6196338;28;20210;-68
2022/01/25 07:12:47;;;;;;;0.70;0.63;;;19.50;48.40;;;;;;6196985;28;20065;-68
2022/01/25 07:15:47;;;;;;;1.30;0.68;;;19.50;48.40;;;;;;6196257;28;20038;-69
2022/01/25 07:18:48;;;;;;;1.00;0.90;;;19.50;48.50;;;;;;6196392;28;20027;-69
2022/01/25 07:21:48;;;;;;;1.05;0.93;;;19.50;48.50;;;;;;6196048;28;20042;-69
2022/01/25 07:24:49;;;;;;;1.77;0.90;;;19.50;48.50;;;;;;6196241;28;20370;-69
2022/01/25 07:27:49;;;;;;;1.80;0.98;;;19.50;48.50;;;;;;6196239;28;20092;-69
2022/01/25 07:30:50;;;;;;;1.42;1.05;;;19.50;48.60;;;;;;6196148;28;20026;-70
2022/01/25 07:33:51;;;;;;;1.23;0.80;;;19.50;48.60;;;;;;6196056;28;20594;-69
2022/01/25 07:36:51;;;;;;;1.60;0.98;;;19.50;48.50;;;;;;6195430;28;20452;-69
2022/01/25 07:39:52;;;;;;;1.33;1.00;;;19.50;48.50;;;;;;6196111;28;20041;-69
2022/01/25 07:42:53;;;;;;;1.67;1.08;;;19.50;48.60;;;;;;6195461;28;20026;-69
2022/01/25 07:45:54;;;;;;;2.00;1.00;;;19.50;48.60;;;;;;6195400;28;20096;-69
2022/01/25 07:48:55;;;;;;;1.13;0.77;;;19.50;48.60;;;;;;6196227;28;20110;-69
2022/01/25 07:51:56;;;;;;;1.30;1.00;;;19.50;48.60;;;;;;6196528;28;20038;-67
2022/01/25 07:54:57;;;;;;;1.17;0.85;;;19.50;48.60;;;;;;6195996;28;20026;-69
2022/01/25 07:57:57;;;;;;;1.20;1.10;;;19.50;48.60;;;;;;6195316;28;20026;-69
2022/01/25 08:00:58;;;;;;;1.48;0.95;;;19.50;48.60;;;;;;6196086;28;20026;-69
2022/01/25 08:03:59;;;;;;;1.58;0.90;;;19.50;48.60;;;;;;6196337;28;20022;-69
2022/01/25 08:06:59;;;;;;;1.27;1.08;;;19.50;48.60;;;;;;6195175;28;20037;-69
2022/01/25 08:10:00;;;;;;;1.42;1.00;;;19.50;48.70;;;;;;6195245;28;20065;-69
2022/01/25 08:13:00;;;;;;;0.75;0.75;;;19.50;48.70;;;;;;6194820;28;20572;-69
2022/01/25 08:16:01;;;;;;;1.10;1.00;;;19.50;48.60;;;;;;6195401;28;20030;-69
2022/01/25 08:19:02;;;;;;;5.63;1.25;;;19.50;48.70;;;;;;6192758;28;20341;-68
2022/01/25 08:22:02;;;;;;;1.95;1.35;;;19.50;48.80;;;;;;6193979;28;20026;-69
2022/01/25 08:25:04;;;;;;;2.17;1.23;;;19.60;48.90;;;;;;6193807;28;20026;-69
2022/01/25 08:28:05;;;;;;;1.42;1.10;;;19.60;48.50;;;;;;6193905;28;20057;-69
2022/01/25 08:31:05;;;;;;;3.53;1.20;;;19.60;48.50;;;;;;6193966;28;20497;-68
2022/01/25 08:34:07;;;;;;;2.50;1.35;;;19.70;48.40;;;;;;6193709;28;20062;-69
2022/01/25 08:37:08;;;;;;;7.75;1.30;;;19.70;48.30;;;;;;6192830;28;20026;-69
2022/01/25 08:40:09;;;;;;;1.58;1.10;;;19.70;48.30;;;;;;6194315;28;20019;-69
2022/01/25 08:43:10;;;;;;;1.85;1.10;;;19.70;48.20;;;;;;6192871;28;20030;-69
2022/01/25 08:46:12;;;;;;;2.53;0.95;;;19.70;48.20;;;;;;6194302;28;20497;-69
2022/01/25 08:49:13;;;;;;;2.88;1.30;;;19.70;48.30;;;;;;6195377;28;20062;-69
2022/01/25 08:52:13;;;;;;;2.75;1.30;;;19.80;48.60;;;;;;6191952;28;20046;-69
2022/01/25 08:55:15;;;;;;;5.47;1.30;;;19.80;48.60;;;;;;6171155;28;20039;-69
2022/01/25 08:58:15;;;;;;;2.72;1.20;;;19.80;49.20;;;;;;6170678;28;20023;-69
2022/01/25 09:01:16;;;;;;;3.88;1.05;;;19.80;49.10;;;;;;6171574;28;20548;-69
2022/01/25 09:04:17;;;;;;;4.70;1.40;;;19.80;48.70;;;;;;6171376;28;20106;-69
2022/01/25 09:07:18;;;;;;;2.35;1.20;;;19.70;48.70;;;;;;6170450;28;20037;-69
2022/01/25 09:10:18;;;;;;;2.25;1.40;;;19.70;48.70;;;;;;6176283;28;20046;-69
2022/01/25 09:13:19;;;;;;;2.88;1.17;;;19.70;48.70;;;;;;6194348;28;20093;-69
2022/01/25 09:16:20;;;;;;;6.18;1.45;;;19.70;48.80;;;;;;6192790;28;20101;-69
2022/01/25 09:19:21;;;;;;;1.88;1.10;;;19.70;48.80;;;;;;6194518;28;20049;-69
2022/01/25 09:22:21;;;;;;;4.72;1.10;;;19.70;48.80;;;;;;6207568;28;20502;-68
2022/01/25 09:25:22;;;;;;;11.77;2.47;;;19.70;48.90;;;;;;6219356;28;20610;-69
2022/01/25 09:28:23;;;;;;;14.15;3.28;;;19.70;49.00;;;;;;6218656;28;20037;-69
2022/01/25 09:31:24;;;;;;;17.23;2.30;;;19.70;49.30;;;;;;6219222;28;20432;-69
2022/01/25 09:34:27;;;;;;;8.50;1.60;;;19.70;48.90;;;;;;6197121;28;20031;-69
2022/01/25 09:37:27;;;;;;;10.23;2.05;;;19.70;48.90;;;;;;6194032;28;20029;-68
2022/01/25 09:40:28;;;;;;;5.15;1.35;;;19.70;49.10;;;;;;6194609;28;20027;-69
2022/01/25 09:43:30;;;;;;;4.32;1.52;;;19.70;48.90;;;;;;6194664;28;20027;-68
2022/01/25 09:46:31;;;;;;;3.38;1.50;;;19.70;48.90;;;;;;6197298;28;20031;-69
2022/01/25 09:49:33;;;;;;;8.15;1.52;;;19.70;49.00;;;;;;6198638;28;20038;-68
2022/01/25 09:52:35;;;;;;;3.13;1.48;;;19.70;49.00;;;;;;6195041;28;20520;-68
2022/01/25 09:55:39;;;;;;;2.95;1.55;;;19.70;48.90;;;;;;6198345;28;20026;-69
2022/01/25 09:58:42;;;;;;;5.85;1.67;;;19.70;48.90;;;;;;6198163;28;20485;-69
2022/01/25 10:01:42;;;;;;;3.35;1.52;;;19.70;48.90;;;;;;6198968;28;20062;-68
2022/01/25 10:04:49;;;;;;;4.55;1.65;;;19.70;48.90;;;;;;6198464;28;20029;-69
2022/01/25 10:08:02;;;;;;;2.85;1.40;;;19.70;48.90;;;;;;6197821;28;20038;-68
2022/01/25 10:11:05;;;;;;;2.95;1.58;;;19.70;49.00;;;;;;6197823;28;20417;-68
2022/01/25 10:14:07;;;;;;;2.38;1.35;;;19.60;48.90;;;;;;6198651;28;20038;-69
2022/01/25 10:17:08;;;;;;;1.63;1.45;;;19.70;49.00;;;;;;6197283;28;20037;-68
2022/01/25 10:20:25;;;;;;;4.10;1.35;;;19.60;48.90;;;;;;6198331;28;20440;-68
2022/01/25 10:23:30;;;;;;;3.35;1.30;;;19.70;48.90;;;;;;6197366;28;20509;-68
2022/01/25 10:26:33;;;;;;;2.83;1.48;;;19.70;49.00;;;;;;6197407;28;20036;-68
2022/01/25 10:29:36;;;;;;;3.58;1.25;;;19.70;48.90;;;;;;6200310;28;20497;-68
2022/01/25 10:32:39;;;;;;;1.95;1.15;;;19.60;48.90;;;;;;6197705;28;20057;-68
2022/01/25 10:35:39;;;;;;;1.92;1.38;;;19.60;48.90;;;;;;6196323;28;20037;-69
2022/01/25 10:38:42;;;;;;;1.30;1.10;;;19.60;48.90;;;;;;6196930;28;20023;-68
2022/01/25 10:41:43;;;;;;;3.00;1.40;;;19.60;48.90;;;;;;6197739;28;20034;-68
2022/01/25 10:44:56;;;;;;;1.45;1.20;;;19.60;49.60;;;;;;6197651;28;20030;-68
2022/01/25 10:47:56;;;;;;;2.10;1.50;;;19.60;48.90;;;;;;6196803;28;20488;-69
2022/01/25 10:51:44;;;;;;;2.65;1.60;;;19.60;48.90;;;;;;6196574;28;20030;-68
2022/01/25 10:54:45;;;;;;;1.67;1.10;;;19.60;48.90;;;;;;6196283;28;20413;-68
2022/01/25 10:57:56;;;;;;;2.10;1.60;;;19.60;48.90;;;;;;6196121;28;20026;-68
2022/01/25 11:00:59;;;;;;;1.75;1.40;;;19.60;48.90;;;;;;6197163;28;20045;-69
2022/01/25 11:04:10;;;;;;;1.90;1.33;;;19.60;49.00;;;;;;6196832;28;20433;-69
2022/01/25 11:07:12;;;;;;;2.20;1.33;;;19.60;49.00;;;;;;6195951;28;20023;-68
2022/01/25 11:10:20;;;;;;;2.58;1.42;;;19.60;49.00;;;;;;6191804;28;20086;-69
2022/01/25 11:16:28;;;;;;;1.42;1.10;;;19.60;49.00;;;;;;6171800;28;20031;-69
2022/01/25 11:19:29;;;;;;;2.95;1.40;;;19.60;49.00;;;;;;6172549;28;20090;-69
2022/01/25 11:22:29;;;;;;;2.90;1.20;;;19.60;49.00;;;;;;6188588;28;20409;-69
2022/01/25 11:25:31;;;;;;;2.40;1.50;;;19.60;49.00;;;;;;6196944;28;20029;-69
2022/01/25 11:28:33;;;;;;;1.63;1.30;;;19.60;49.00;;;;;;6196818;28;20023;-68
2022/01/25 11:31:36;;;;;;;2.83;1.60;;;19.60;49.00;;;;;;6197047;28;20270;-69
2022/01/25 11:34:39;;;;;;;2.80;1.40;;;19.60;49.00;;;;;;6174712;28;20066;-68
2022/01/25 11:37:43;;;;;;;2.25;1.30;;;19.60;49.00;;;;;;6171962;28;20161;-69
2022/01/25 11:40:46;;;;;;;2.17;1.50;;;19.60;49.00;;;;;;6188870;28;20494;-69
2022/01/25 11:44:05;;;;;;;2.10;1.52;;;19.60;49.00;;;;;;6174302;28;20018;-68
2022/01/25 11:47:12;;;;;;;2.55;1.52;;;19.60;49.00;;;;;;6173244;28;20023;-69
2022/01/25 11:50:13;;;;;;;1.42;1.10;;;19.60;49.00;;;;;;6180573;28;20038;-69
2022/01/25 11:53:17;;;;;;;1.70;1.50;;;19.60;49.00;;;;;;6195845;28;20452;-69
2022/01/25 11:56:18;;;;;;;1.52;1.30;;;19.60;49.00;;;;;;6196232;28;20041;-69
2022/01/25 11:59:19;;;;;;;2.80;1.40;;;19.60;49.00;;;;;;6197064;28;20030;-69
2022/01/25 12:02:39;;;;;;;1.67;1.13;;;19.60;49.00;;;;;;6195564;28;20031;-69
2022/01/25 12:06:16;;;;;;;1.88;1.48;;;19.60;49.00;;;;;;6196943;28;20385;-69
2022/01/25 12:09:41;;;;;;;1.63;1.17;;;19.60;49.10;;;;;;6195742;28;20397;-69
2022/01/25 12:12:38;;;;;;;3.35;1.20;;;19.60;49.10;;;;;;6197831;28;20049;-69
2022/01/25 12:15:40;;;;;;;1.67;1.23;;;19.60;49.00;;;;;;6195968;28;20061;-68
2022/01/25 12:18:54;;;;;;;2.13;1.30;;;19.60;49.00;;;;;;6197028;28;20023;-69
2022/01/25 12:21:56;;;;;;;2.08;1.60;;;19.60;49.00;;;;;;6197036;28;20464;-69
2022/01/25 12:25:18;;;;;;;3.22;1.25;;;19.60;49.00;;;;;;6197385;28;20025;-69
2022/01/25 12:28:32;;;;;;;1.55;1.20;;;19.60;49.00;;;;;;6196962;28;20030;-69
2022/01/25 12:31:42;;;;;;;1.65;1.40;;;19.60;49.10;;;;;;6192024;28;20113;-69
2022/01/25 12:35:07;;;;;;;1.60;1.02;;;19.60;49.00;;;;;;6194383;28;20495;-69
2022/01/25 12:38:12;;;;;;;1.30;1.20;;;19.60;49.10;;;;;;6194709;28;20022;-69
2022/01/25 12:41:16;;;;;;;1.35;1.20;;;19.60;49.10;;;;;;6198183;28;20069;-69
2022/01/25 12:44:20;;;;;;;1.92;1.35;;;19.60;49.10;;;;;;6200592;28;20111;-69
2022/01/25 12:47:21;;;;;;;1.77;1.30;;;19.60;49.00;;;;;;6196290;28;20473;-69
2022/01/25 12:50:22;;;;;;;2.35;1.52;;;19.60;49.10;;;;;;6189880;28;20134;-69
2022/01/25 12:53:26;;;;;;;1.48;1.10;;;19.60;49.10;;;;;;6192473;28;20074;-69
2022/01/25 12:56:34;;;;;;;1.45;0.88;;;19.60;49.00;;;;;;6193821;28;20046;-69
2022/01/25 12:59:35;;;;;;;1.70;1.48;;;19.60;49.10;;;;;;6193672;28;20037;-68
2022/01/25 13:02:35;;;;;;;1.70;1.27;;;19.60;49.10;;;;;;6194600;28;20027;-69
2022/01/25 13:05:41;;;;;;;3.25;2.10;;;19.60;49.00;;;;;;6194197;28;20034;-69
2022/01/25 13:09:13;;;;;;;1.40;1.20;;;19.60;48.90;;;;;;6191057;28;20088;-70
2022/01/25 13:12:22;;;;;;;1.55;1.40;;;19.60;49.00;;;;;;6194225;28;20893;-70
2022/01/25 13:18:43;;;;;;;4.05;1.65;;;19.60;49.00;;;;;;6170730;28;20076;-68
2022/01/25 13:21:51;;;;;;;2.53;1.55;;;19.70;49.20;;;;;;6192339;28;20030;-69
2022/01/25 13:24:58;;;;;;;6.78;1.50;;;19.70;49.10;;;;;;6198334;28;20026;-69
2022/01/25 13:28:02;;;;;;;1.83;1.25;;;19.80;49.00;;;;;;6197943;28;20130;-69
2022/01/25 13:31:12;;;;;;;1.95;1.40;;;19.80;49.00;;;;;;6196526;28;20383;-69
2022/01/25 13:34:13;;;;;;;1.90;1.55;;;19.90;49.00;;;;;;6194216;28;20061;-69
2022/01/25 13:37:21;;;;;;;1.77;1.02;;;19.90;49.00;;;;;;6197480;28;20437;-69
2022/01/25 13:40:24;;;;;;;1.50;1.13;;;19.90;48.70;;;;;;6198615;28;20030;-69
2022/01/25 13:45:44;;;;;;;2.10;1.45;;;19.90;48.80;;;;;;6198032;28;20034;-69
2022/01/25 13:46:54;;;;;;;4.10;1.50;;;19.90;49.50;;;;;;6197071;28;20117;-68
2022/01/25 13:49:56;;;;;;;3.97;1.40;;;19.90;48.80;;;;;;6173657;28;20033;-69
2022/01/25 13:52:57;;;;;;;1.70;1.30;;;19.90;48.80;;;;;;6184477;28;20030;-69
2022/01/25 13:56:00;;;;;;;2.50;1.67;;;19.90;48.80;;;;;;6173649;28;20030;-68
2022/01/25 13:59:03;;;;;;;8.20;1.60;;;19.90;49.00;;;;;;6173430;28;20489;-68
2022/01/25 14:02:03;;;;;;;1.92;1.45;;;19.90;49.10;;;;;;6174411;28;20041;-69
2022/01/25 14:05:05;;;;;;;4.95;1.17;;;19.90;49.00;;;;;;6174066;28;20027;-69
2022/01/25 14:08:05;;;;;;;3.92;1.52;;;20.00;48.80;;;;;;6186519;28;20101;-68
2022/01/25 14:21:52;;;;;;;2.30;1.60;;;19.90;48.70;;;;;;6196634;28;20117;-68
2022/01/25 14:24:54;;;;;;;3.50;1.80;;;19.90;48.70;;;;;;6197619;28;20026;-69
2022/01/25 14:27:57;;;;;;;2.30;1.10;;;19.90;48.70;;;;;;6196297;28;20500;-68
2022/01/25 14:31:01;;;;;;;4.60;1.38;;;19.90;48.80;;;;;;6196744;28;20500;-68
2022/01/25 14:34:02;;;;;;;5.80;1.52;;;19.90;48.80;;;;;;6196549;28;20065;-68
2022/01/25 14:37:13;;;;;;;2.28;1.30;;;19.90;48.80;;;;;;6195091;28;20022;-67
2022/01/25 14:40:16;;;;;;;2.50;1.40;;;19.90;48.70;;;;;;6196633;28;20022;-69
2022/01/25 14:43:17;;;;;;;2.10;1.30;;;19.90;48.70;;;;;;6197223;28;20026;-69
2022/01/25 14:46:28;;;;;;;2.75;1.50;;;19.90;48.70;;;;;;6196435;28;20038;-69
2022/01/25 14:49:31;;;;;;;1.80;1.38;;;19.90;48.80;;;;;;6196889;28;20390;-69
2022/01/25 14:52:31;;;;;;;2.95;1.77;;;19.80;48.70;;;;;;6194542;28;20065;-69
2022/01/25 14:55:34;;;;;;;2.17;1.30;;;19.80;48.80;;;;;;6196817;28;20471;-68
2022/01/25 14:59:28;;;;;;;2.22;1.65;;;19.80;48.80;;;;;;6196264;28;20026;-69
2022/01/25 15:02:15;;;;;;;1.73;1.30;;;19.80;48.90;;;;;;6193657;28;20034;-69
2022/01/25 15:05:16;;;;;;;2.08;1.48;;;19.80;49.00;;;;;;6196675;28;20065;-69
2022/01/25 15:08:18;;;;;;;1.42;1.25;;;19.80;49.00;;;;;;6196138;28;20026;-69
2022/01/25 15:11:20;;;;;;;2.30;1.50;;;19.80;49.10;;;;;;6196520;28;20536;-69
2022/01/25 15:14:23;;;;;;;1.63;1.38;;;19.80;49.10;;;;;;6196264;28;20030;-69
2022/01/25 15:17:23;;;;;;;1.88;1.27;;;19.80;49.10;;;;;;6196031;28;20120;-68
2022/01/25 15:20:24;;;;;;;1.73;1.42;;;19.80;49.20;;;;;;6195765;28;20496;-70
2022/01/25 15:23:26;;;;;;;4.28;1.67;;;19.80;49.50;;;;;;6194527;28;20019;-68
2022/01/25 15:26:35;;;;;;;4.57;1.65;;;19.80;49.40;;;;;;6195271;28;20452;-68
2022/01/25 15:29:36;;;;;;;1.45;1.08;;;19.80;49.20;;;;;;6196261;28;20037;-68
2022/01/25 15:32:36;;;;;;;3.35;1.75;;;19.80;49.10;;;;;;6195763;28;20086;-68
2022/01/25 15:35:38;;;;;;;71.57;4.50;;;19.70;49.10;;;;;;6195695;28;20449;-69
2022/01/25 15:38:39;;;;;;;50.58;5.30;;;19.80;48.70;;;;;;6196206;28;20073;-69
2022/01/25 15:41:40;;;;;;;74.93;6.47;;;19.80;48.40;;;;;;6195880;28;20026;-69
2022/01/25 15:44:45;;;;;;;118.00;7.47;;;19.80;48.30;;;;;;6195848;28;20404;-69
2022/01/25 15:47:46;;;;;;;92.00;8.00;;;19.80;48.30;;;;;;6195704;28;20030;-70
2022/01/25 15:50:47;;;;;;;89.43;6.88;;;19.80;48.20;;;;;;6195062;28;20065;-69
2022/01/25 15:53:48;;;;;;;53.97;6.18;;;19.80;48.20;;;;;;6187994;28;20057;-70
2022/01/25 15:56:48;;;;;;;42.55;5.68;;;19.80;48.30;;;;;;6195218;28;20544;-68
2022/01/25 15:59:49;;;;;;;60.00;5.78;;;19.90;48.60;;;;;;6195404;28;20038;-67
2022/01/25 16:02:50;;;;;;;46.97;5.50;;;19.90;48.40;;;;;;6195529;28;20105;-68
2022/01/25 16:05:50;;;;;;;40.72;5.25;;;19.90;48.60;;;;;;6194979;28;20026;-68
2022/01/25 16:08:53;;;;;;;43.90;5.65;;;20.00;48.70;;;;;;6195539;28;20027;-67
2022/01/25 16:11:54;;;;;;;36.30;5.43;;;19.90;48.70;;;;;;6194889;28;20054;-68
2022/01/25 16:14:54;;;;;;;28.42;4.70;;;20.00;48.60;;;;;;6195236;28;20045;-68
2022/01/25 16:17:55;;;;;;;40.53;4.80;;;19.90;48.60;;;;;;6194540;28;20366;-68
2022/01/25 16:20:56;;;;;;;30.83;4.70;;;20.00;48.60;;;;;;6194907;28;20038;-68
2022/01/25 16:23:56;;;;;;;23.45;4.15;;;19.90;48.60;;;;;;6193032;28;20078;-68
2022/01/25 16:26:57;;;;;;;20.42;3.90;;;19.90;48.50;;;;;;6194839;28;20014;-69
2022/01/25 16:29:58;;;;;;;24.90;4.10;;;19.90;48.60;;;;;;6195129;28;20022;-68
2022/01/25 16:32:58;;;;;;;20.63;4.07;;;19.90;48.60;;;;;;6194508;28;20735;-68
2022/01/25 16:35:59;;;;;;;17.70;3.38;;;19.90;48.60;;;;;;6194310;28;20031;-68
2022/01/25 16:39:01;;;;;;;21.25;3.50;;;19.90;48.60;;;;;;6194986;28;20026;-68
2022/01/25 16:42:02;;;;;;;15.98;3.35;;;19.90;48.70;;;;;;6194829;28;20057;-68
2022/01/25 16:45:09;;;;;;;20.17;3.67;;;19.90;48.60;;;;;;6218855;28;20489;-68
2022/01/25 16:48:09;;;;;;;15.75;4.05;;;19.90;48.70;;;;;;6218977;28;20551;-68
2022/01/25 16:51:10;;;;;;;9.18;3.17;;;19.90;48.60;;;;;;6211225;28;20032;-68
2022/01/25 16:54:11;;;;;;;17.27;3.08;;;19.90;48.60;;;;;;6175651;28;20034;-68
2022/01/25 16:57:12;;;;;;;14.80;3.38;;;19.90;48.70;;;;;;6197898;28;20030;-68
2022/01/25 17:00:17;;;;;;;10.15;3.10;;;19.90;48.70;;;;;;6199686;28;20031;-68
2022/01/25 17:03:18;;;;;;;12.25;3.35;;;19.90;48.70;;;;;;6199538;28;20030;-68
2022/01/25 17:06:19;;;;;;;11.35;3.20;;;19.90;48.80;;;;;;6199468;28;20034;-68
2022/01/25 17:09:19;;;;;;;6.30;2.10;;;19.90;48.80;;;;;;6199199;28;20023;-68
2022/01/25 17:12:20;;;;;;;9.93;2.92;;;19.80;48.80;;;;;;6199207;28;20129;-68
2022/01/25 17:15:20;;;;;;;6.35;2.22;;;19.80;48.80;;;;;;6199040;28;20638;-68
2022/01/25 17:18:21;;;;;;;11.75;3.17;;;19.80;48.80;;;;;;6196954;28;20038;-68
2022/01/25 17:21:22;;;;;;;9.25;2.35;;;19.80;48.80;;;;;;6196066;28;20035;-68
2022/01/25 17:24:23;;;;;;;12.25;2.88;;;19.80;48.90;;;;;;6196891;28;20027;-68
2022/01/25 17:27:24;;;;;;;6.90;2.30;;;19.80;48.90;;;;;;6197130;28;20030;-68
2022/01/25 17:30:24;;;;;;;5.90;2.42;;;19.70;48.90;;;;;;6198342;28;20433;-68
2022/01/25 17:33:26;;;;;;;5.25;2.25;;;19.80;49.00;;;;;;6187138;28;20085;-67
2022/01/25 17:36:27;;;;;;;6.75;2.58;;;19.70;49.00;;;;;;6197532;28;20030;-73
2022/01/25 17:39:27;;;;;;;7.63;2.28;;;19.80;49.00;;;;;;6188947;28;20049;-69
2022/01/25 17:42:28;;;;;;;14.93;2.75;;;19.80;48.90;;;;;;6194557;28;20038;-70
2022/01/25 17:45:29;;;;;;;9.45;2.50;;;19.90;49.00;;;;;;6197577;28;20027;-66
2022/01/25 17:48:29;;;;;;;8.10;2.13;;;19.90;48.90;;;;;;6197961;28;20029;-74
2022/01/25 17:51:30;;;;;;;8.68;2.08;;;19.90;48.80;;;;;;6198526;28;20030;-73